sensor_id;sensor_type;location;lat;lon;timestamp;temperature;humidity
27922;DHT22;15261;50.356;10.340;2023-06-22T00:00:52;19.20;99.90
27922;DHT22;15261;50.356;10.340;2023-06-22T00:03:19;19.20;99.90
27922;DHT22;15261;50.356;10.340;2023-06-22T00:05:48;19.20;99.90
27922;DHT22;15261;50.356;10.340;2023-06-22T00:08:16;19.10;99.90
27922;DHT22;15261;50.356;10.340;2023-06-22T00:10:42;19.10;99.90
27922;DHT22;15261;50.356;10.340;2023-06-22T00:13:09;19.10;99.90
27922;DHT22;15261;50.356;10.340;2023-06-22T00:15:35;19.10;99.90
27922;DHT22;15261;50.356;10.340;2023-06-22T00:18:02;19.10;99.90
27922;DHT22;15261;50.356;10.340;2023-06-22T00:20:27;19.10;99.90
27922;DHT22;15261;50.356;10.340;2023-06-22T00:22:54;18.90;99.90
27922;DHT22;15261;50.356;10.340;2023-06-22T00:25:20;18.80;99.90
27922;DHT22;15261;50.356;10.340;2023-06-22T00:27:45;18.80;99.90
27922;DHT22;15261;50.356;10.340;2023-06-22T00:30:11;18.80;99.90
27922;DHT22;15261;50.356;10.340;2023-06-22T00:32:37;18.70;99.90
27922;DHT22;15261;50.356;10.340;2023-06-22T00:35:03;18.60;99.90
27922;DHT22;15261;50.356;10.340;2023-06-22T00:37:28;18.60;99.90
27922;DHT22;15261;50.356;10.340;2023-06-22T00:39:55;18.60;99.90
27922;DHT22;15261;50.356;10.340;2023-06-22T00:42:21;18.70;99.90
27922;DHT22;15261;50.356;10.340;2023-06-22T00:44:47;18.60;99.90
27922;DHT22;15261;50.356;10.340;2023-06-22T00:47:17;18.60;99.90
27922;DHT22;15261;50.356;10.340;2023-06-22T00:49:44;18.60;99.90
27922;DHT22;15261;50.356;10.340;2023-06-22T00:52:11;18.60;99.90
27922;DHT22;15261;50.356;10.340;2023-06-22T00:54:43;18.60;99.90
27922;DHT22;15261;50.356;10.340;2023-06-22T00:57:14;18.40;99.90
27922;DHT22;15261;50.356;10.340;2023-06-22T00:59:44;18.50;99.90
27922;DHT22;15261;50.356;10.340;2023-06-22T02:36:51;18.90;99.90
27922;DHT22;15261;50.356;10.340;2023-06-22T02:39:20;18.90;99.90
27922;DHT22;15261;50.356;10.340;2023-06-22T02:41:48;19.00;99.90
27922;DHT22;15261;50.356;10.340;2023-06-22T02:44:14;18.80;99.90
27922;DHT22;15261;50.356;10.340;2023-06-22T02:46:40;18.90;99.90
27922;DHT22;15261;50.356;10.340;2023-06-22T02:49:06;18.80;99.90
27922;DHT22;15261;50.356;10.340;2023-06-22T02:51:33;18.80;99.90
27922;DHT22;15261;50.356;10.340;2023-06-22T02:54:00;18.80;99.90
27922;DHT22;15261;50.356;10.340;2023-06-22T02:56:26;18.90;99.90
27922;DHT22;15261;50.356;10.340;2023-06-22T02:58:51;18.90;99.90
27922;DHT22;15261;50.356;10.340;2023-06-22T03:01:17;19.00;99.90
27922;DHT22;15261;50.356;10.340;2023-06-22T03:03:48;18.80;99.90
27922;DHT22;15261;50.356;10.340;2023-06-22T03:06:14;18.60;99.90
27922;DHT22;15261;50.356;10.340;2023-06-22T03:08:39;18.20;99.90
27922;DHT22;15261;50.356;10.340;2023-06-22T03:11:07;18.20;99.90
27922;DHT22;15261;50.356;10.340;2023-06-22T03:13:33;18.30;99.90
27922;DHT22;15261;50.356;10.340;2023-06-22T03:15:58;18.50;99.90
27922;DHT22;15261;50.356;10.340;2023-06-22T03:18:24;18.60;99.90
27922;DHT22;15261;50.356;10.340;2023-06-22T03:20:49;18.60;99.90
27922;DHT22;15261;50.356;10.340;2023-06-22T03:23:15;18.60;99.90
27922;DHT22;15261;50.356;10.340;2023-06-22T03:25:42;18.60;99.90
27922;DHT22;15261;50.356;10.340;2023-06-22T03:28:10;18.60;99.90
27922;DHT22;15261;50.356;10.340;2023-06-22T03:30:35;18.60;99.90
27922;DHT22;15261;50.356;10.340;2023-06-22T03:33:01;18.70;99.90
27922;DHT22;15261;50.356;10.340;2023-06-22T03:35:26;18.70;99.90
27922;DHT22;15261;50.356;10.340;2023-06-22T03:37:52;18.80;99.90
27922;DHT22;15261;50.356;10.340;2023-06-22T03:40:17;18.80;99.90
27922;DHT22;15261;50.356;10.340;2023-06-22T03:42:43;18.80;99.90
27922;DHT22;15261;50.356;10.340;2023-06-22T03:45:09;18.90;99.90
27922;DHT22;15261;50.356;10.340;2023-06-22T03:47:35;19.00;99.90
27922;DHT22;15261;50.356;10.340;2023-06-22T03:50:00;19.00;99.90
27922;DHT22;15261;50.356;10.340;2023-06-22T03:52:29;19.10;99.90
27922;DHT22;15261;50.356;10.340;2023-06-22T03:54:55;19.20;99.90
27922;DHT22;15261;50.356;10.340;2023-06-22T03:57:20;19.30;99.90
27922;DHT22;15261;50.356;10.340;2023-06-22T03:59:46;19.40;99.90
27922;DHT22;15261;50.356;10.340;2023-06-22T04:02:12;19.50;99.90
27922;DHT22;15261;50.356;10.340;2023-06-22T04:04:37;19.60;99.90
27922;DHT22;15261;50.356;10.340;2023-06-22T04:07:04;19.60;99.90
27922;DHT22;15261;50.356;10.340;2023-06-22T04:09:30;19.60;99.90
27922;DHT22;15261;50.356;10.340;2023-06-22T04:11:55;19.60;99.90
27922;DHT22;15261;50.356;10.340;2023-06-22T04:14:21;19.60;99.90
27922;DHT22;15261;50.356;10.340;2023-06-22T04:16:47;19.60;99.90
27922;DHT22;15261;50.356;10.340;2023-06-22T04:19:12;19.70;99.90
27922;DHT22;15261;50.356;10.340;2023-06-22T04:21:42;19.70;99.90
27922;DHT22;15261;50.356;10.340;2023-06-22T04:24:08;19.70;99.90
27922;DHT22;15261;50.356;10.340;2023-06-22T04:26:33;19.80;99.90
27922;DHT22;15261;50.356;10.340;2023-06-22T04:29:03;19.90;99.90
27922;DHT22;15261;50.356;10.340;2023-06-22T04:31:33;20.00;99.90
27922;DHT22;15261;50.356;10.340;2023-06-22T04:34:05;20.00;99.90
27922;DHT22;15261;50.356;10.340;2023-06-22T04:36:35;20.10;99.90
27922;DHT22;15261;50.356;10.340;2023-06-22T04:39:07;20.10;99.90
27922;DHT22;15261;50.356;10.340;2023-06-22T04:41:38;20.20;99.90
27922;DHT22;15261;50.356;10.340;2023-06-22T04:44:11;20.20;99.90
27922;DHT22;15261;50.356;10.340;2023-06-22T04:46:39;20.20;99.90
27922;DHT22;15261;50.356;10.340;2023-06-22T04:49:08;20.40;99.90
27922;DHT22;15261;50.356;10.340;2023-06-22T04:51:41;20.50;99.90
27922;DHT22;15261;50.356;10.340;2023-06-22T04:54:08;20.60;99.90
27922;DHT22;15261;50.356;10.340;2023-06-22T04:56:34;20.90;99.90
27922;DHT22;15261;50.356;10.340;2023-06-22T04:59:00;21.10;99.90
27922;DHT22;15261;50.356;10.340;2023-06-22T05:01:26;21.20;99.90
27922;DHT22;15261;50.356;10.340;2023-06-22T05:03:51;21.40;99.90
27922;DHT22;15261;50.356;10.340;2023-06-22T05:06:26;21.50;99.90
27922;DHT22;15261;50.356;10.340;2023-06-22T05:08:55;21.80;99.90
27922;DHT22;15261;50.356;10.340;2023-06-22T05:11:28;22.00;99.90
27922;DHT22;15261;50.356;10.340;2023-06-22T05:13:54;22.10;99.90
27922;DHT22;15261;50.356;10.340;2023-06-22T05:16:20;22.20;99.90
27922;DHT22;15261;50.356;10.340;2023-06-22T05:18:56;22.20;99.90
27922;DHT22;15261;50.356;10.340;2023-06-22T05:21:23;22.00;99.90
27922;DHT22;15261;50.356;10.340;2023-06-22T05:23:49;21.80;99.90
27922;DHT22;15261;50.356;10.340;2023-06-22T05:26:14;21.80;99.90
27922;DHT22;15261;50.356;10.340;2023-06-22T05:28:40;21.60;99.90
27922;DHT22;15261;50.356;10.340;2023-06-22T05:31:05;21.90;99.90
27922;DHT22;15261;50.356;10.340;2023-06-22T05:33:31;22.00;99.90
27922;DHT22;15261;50.356;10.340;2023-06-22T05:35:57;22.40;99.90
27922;DHT22;15261;50.356;10.340;2023-06-22T05:38:22;22.50;99.90
27922;DHT22;15261;50.356;10.340;2023-06-22T05:40:48;22.80;99.90
27922;DHT22;15261;50.356;10.340;2023-06-22T05:43:13;23.00;99.90
27922;DHT22;15261;50.356;10.340;2023-06-22T05:45:39;23.10;99.90
27922;DHT22;15261;50.356;10.340;2023-06-22T05:48:05;23.10;99.90
27922;DHT22;15261;50.356;10.340;2023-06-22T05:50:30;23.20;99.90
27922;DHT22;15261;50.356;10.340;2023-06-22T05:52:56;23.40;99.90
27922;DHT22;15261;50.356;10.340;2023-06-22T05:55:21;23.60;99.90
27922;DHT22;15261;50.356;10.340;2023-06-22T05:57:47;23.90;99.90
27922;DHT22;15261;50.356;10.340;2023-06-22T06:00:13;24.00;99.90
27922;DHT22;15261;50.356;10.340;2023-06-22T06:02:40;23.90;99.90
27922;DHT22;15261;50.356;10.340;2023-06-22T06:05:13;24.00;99.90
27922;DHT22;15261;50.356;10.340;2023-06-22T06:07:42;24.10;99.90
27922;DHT22;15261;50.356;10.340;2023-06-22T06:10:08;24.10;99.90
27922;DHT22;15261;50.356;10.340;2023-06-22T06:12:34;24.10;99.90
27922;DHT22;15261;50.356;10.340;2023-06-22T06:15:00;24.50;99.90
27922;DHT22;15261;50.356;10.340;2023-06-22T06:17:26;24.80;99.90
27922;DHT22;15261;50.356;10.340;2023-06-22T06:19:51;25.10;99.90
27922;DHT22;15261;50.356;10.340;2023-06-22T06:22:18;25.90;99.90
27922;DHT22;15261;50.356;10.340;2023-06-22T06:24:45;26.40;99.90
27922;DHT22;15261;50.356;10.340;2023-06-22T06:27:11;26.80;99.90
27922;DHT22;15261;50.356;10.340;2023-06-22T06:29:36;27.10;99.90
27922;DHT22;15261;50.356;10.340;2023-06-22T06:32:02;27.30;99.90
27922;DHT22;15261;50.356;10.340;2023-06-22T06:34:27;28.00;99.90
27922;DHT22;15261;50.356;10.340;2023-06-22T06:36:53;28.30;98.40
27922;DHT22;15261;50.356;10.340;2023-06-22T06:39:19;28.20;97.70
27922;DHT22;15261;50.356;10.340;2023-06-22T06:41:45;28.60;96.80
27922;DHT22;15261;50.356;10.340;2023-06-22T06:44:11;28.80;95.80
27922;DHT22;15261;50.356;10.340;2023-06-22T06:46:37;29.10;95.10
27922;DHT22;15261;50.356;10.340;2023-06-22T06:49:03;29.20;94.30
27922;DHT22;15261;50.356;10.340;2023-06-22T06:51:29;29.10;93.10
27922;DHT22;15261;50.356;10.340;2023-06-22T06:53:54;28.80;93.20
27922;DHT22;15261;50.356;10.340;2023-06-22T06:56:20;28.50;93.90
27922;DHT22;15261;50.356;10.340;2023-06-22T06:58:46;28.50;94.00
27922;DHT22;15261;50.356;10.340;2023-06-22T07:01:12;28.00;91.70
27922;DHT22;15261;50.356;10.340;2023-06-22T07:03:38;27.00;92.70
27922;DHT22;15261;50.356;10.340;2023-06-22T07:06:04;26.80;95.30
27922;DHT22;15261;50.356;10.340;2023-06-22T07:08:29;26.40;94.40
27922;DHT22;15261;50.356;10.340;2023-06-22T07:10:55;26.00;94.40
27922;DHT22;15261;50.356;10.340;2023-06-22T07:13:21;26.00;95.30
27922;DHT22;15261;50.356;10.340;2023-06-22T07:15:46;26.10;95.70
27922;DHT22;15261;50.356;10.340;2023-06-22T07:18:12;26.20;94.80
27922;DHT22;15261;50.356;10.340;2023-06-22T07:20:37;26.10;94.40
27922;DHT22;15261;50.356;10.340;2023-06-22T07:23:04;26.00;94.50
27922;DHT22;15261;50.356;10.340;2023-06-22T07:25:30;26.00;95.50
27922;DHT22;15261;50.356;10.340;2023-06-22T07:28:04;25.90;95.30
27922;DHT22;15261;50.356;10.340;2023-06-22T07:30:30;25.80;95.00
27922;DHT22;15261;50.356;10.340;2023-06-22T07:32:57;25.80;94.60
27922;DHT22;15261;50.356;10.340;2023-06-22T07:35:23;25.80;94.60
27922;DHT22;15261;50.356;10.340;2023-06-22T07:37:49;26.00;95.00
27922;DHT22;15261;50.356;10.340;2023-06-22T07:40:15;26.30;95.20
27922;DHT22;15261;50.356;10.340;2023-06-22T07:42:40;26.50;95.70
27922;DHT22;15261;50.356;10.340;2023-06-22T07:45:07;26.40;93.40
27922;DHT22;15261;50.356;10.340;2023-06-22T07:47:35;26.30;94.60
27922;DHT22;15261;50.356;10.340;2023-06-22T07:50:02;26.30;95.10
27922;DHT22;15261;50.356;10.340;2023-06-22T07:52:28;26.40;93.80
27922;DHT22;15261;50.356;10.340;2023-06-22T07:54:54;26.40;93.50
27922;DHT22;15261;50.356;10.340;2023-06-22T07:57:20;26.50;93.50
27922;DHT22;15261;50.356;10.340;2023-06-22T07:59:45;26.70;93.60
27922;DHT22;15261;50.356;10.340;2023-06-22T08:02:11;26.70;92.40
27922;DHT22;15261;50.356;10.340;2023-06-22T08:04:37;26.80;93.20
27922;DHT22;15261;50.356;10.340;2023-06-22T08:07:03;27.00;92.80
27922;DHT22;15261;50.356;10.340;2023-06-22T08:09:30;27.10;92.50
27922;DHT22;15261;50.356;10.340;2023-06-22T08:11:56;27.20;92.90
27922;DHT22;15261;50.356;10.340;2023-06-22T08:14:25;27.10;91.10
27922;DHT22;15261;50.356;10.340;2023-06-22T08:16:51;27.10;92.10
27922;DHT22;15261;50.356;10.340;2023-06-22T08:19:17;27.10;91.60
27922;DHT22;15261;50.356;10.340;2023-06-22T08:21:43;27.30;91.10
27922;DHT22;15261;50.356;10.340;2023-06-22T08:24:09;26.90;90.30
27922;DHT22;15261;50.356;10.340;2023-06-22T08:26:34;27.00;91.80
27922;DHT22;15261;50.356;10.340;2023-06-22T08:29:05;27.30;91.60
27922;DHT22;15261;50.356;10.340;2023-06-22T08:31:31;27.50;91.10
27922;DHT22;15261;50.356;10.340;2023-06-22T08:33:58;27.50;90.00
27922;DHT22;15261;50.356;10.340;2023-06-22T08:36:24;27.50;90.00
27922;DHT22;15261;50.356;10.340;2023-06-22T08:38:51;27.50;90.50
27922;DHT22;15261;50.356;10.340;2023-06-22T08:41:17;27.50;90.70
27922;DHT22;15261;50.356;10.340;2023-06-22T08:43:44;27.70;90.80
27922;DHT22;15261;50.356;10.340;2023-06-22T08:46:12;27.70;89.10
27922;DHT22;15261;50.356;10.340;2023-06-22T08:48:39;27.80;90.30
27922;DHT22;15261;50.356;10.340;2023-06-22T08:51:04;27.90;88.90
27922;DHT22;15261;50.356;10.340;2023-06-22T08:53:30;27.90;90.60
27922;DHT22;15261;50.356;10.340;2023-06-22T08:55:55;27.90;89.40
27922;DHT22;15261;50.356;10.340;2023-06-22T08:58:21;28.10;90.20
27922;DHT22;15261;50.356;10.340;2023-06-22T09:00:47;28.30;90.60
27922;DHT22;15261;50.356;10.340;2023-06-22T09:03:13;28.40;89.90
27922;DHT22;15261;50.356;10.340;2023-06-22T09:05:38;28.40;89.00
27922;DHT22;15261;50.356;10.340;2023-06-22T09:08:04;28.40;90.40
27922;DHT22;15261;50.356;10.340;2023-06-22T09:10:30;28.40;86.30
27922;DHT22;15261;50.356;10.340;2023-06-22T09:12:57;28.40;88.60
27922;DHT22;15261;50.356;10.340;2023-06-22T09:15:22;28.20;87.00
27922;DHT22;15261;50.356;10.340;2023-06-22T09:17:48;27.90;86.80
27922;DHT22;15261;50.356;10.340;2023-06-22T09:20:14;28.10;88.10
27922;DHT22;15261;50.356;10.340;2023-06-22T09:22:40;28.30;89.50
27922;DHT22;15261;50.356;10.340;2023-06-22T09:25:06;28.40;88.80
27922;DHT22;15261;50.356;10.340;2023-06-22T09:27:31;28.30;85.70
27922;DHT22;15261;50.356;10.340;2023-06-22T09:29:57;28.30;86.40
27922;DHT22;15261;50.356;10.340;2023-06-22T09:32:24;28.40;87.50
27922;DHT22;15261;50.356;10.340;2023-06-22T09:34:51;28.60;88.50
27922;DHT22;15261;50.356;10.340;2023-06-22T09:37:18;28.70;85.80
27922;DHT22;15261;50.356;10.340;2023-06-22T09:39:43;28.70;84.00
27922;DHT22;15261;50.356;10.340;2023-06-22T09:42:09;28.70;84.10
27922;DHT22;15261;50.356;10.340;2023-06-22T09:44:34;28.70;83.80
27922;DHT22;15261;50.356;10.340;2023-06-22T09:47:00;28.70;85.60
27922;DHT22;15261;50.356;10.340;2023-06-22T09:49:26;28.70;84.00
27922;DHT22;15261;50.356;10.340;2023-06-22T09:51:51;28.70;84.50
27922;DHT22;15261;50.356;10.340;2023-06-22T09:54:18;28.70;84.00
27922;DHT22;15261;50.356;10.340;2023-06-22T09:56:43;28.50;82.60
27922;DHT22;15261;50.356;10.340;2023-06-22T09:59:09;28.60;82.60
27922;DHT22;15261;50.356;10.340;2023-06-22T10:01:34;28.40;83.80
27922;DHT22;15261;50.356;10.340;2023-06-22T10:04:02;28.50;84.10
27922;DHT22;15261;50.356;10.340;2023-06-22T10:06:27;28.70;84.30
27922;DHT22;15261;50.356;10.340;2023-06-22T10:08:53;28.70;82.10
27922;DHT22;15261;50.356;10.340;2023-06-22T10:11:18;28.70;82.40
27922;DHT22;15261;50.356;10.340;2023-06-22T10:13:44;28.50;81.80
27922;DHT22;15261;50.356;10.340;2023-06-22T10:16:10;28.40;81.90
